Aérodrome :
LOGIN :

S'inscrire | Disclaimer

   EN    FR    IT 

 










Légende :    VFR   VFR Marginal   IFR   IFR Intensif   IFR Très Intensif
Visi : 
Plafond : 
>= 8 km
>= 3000ft
5 à 8 km
1000 à 3000 ft
1500m à 5 km
500 à 1000 ft
800 à 1500m
200 à 500 ft
< 800m
< 200 ft
Symboles :   Orages  Brouillard  Fortes neiges  Fortes précipitations  Vent > 20 kt
SIGMETs :   Divers  Orages  Givrage  Turbulence  Onde Orograph.  Cendres Volcan.







- Altitude de l'aérodrome : 146 ft
- Code IATA : RKE


EKRK - Roskilde Tune

DERNIER METAR :
  • 211520Z AUTO 32013KT 9999NDV NCD 16/04 Q1019

METARs EXPIRÉS :
  • 211450Z AUTO 31014KT 9999NDV FEW047/// 16/04 Q1019
  • 211420Z AUTO 30015KT 9999NDV SCT048/// 15/04 Q1019
  • 211350Z AUTO 32015KT 9999NDV NCD 16/04 Q1019
  • 211320Z AUTO 32016KT 9999NDV FEW050/// 16/05 Q1020
  • 211250Z AUTO 31014KT 280V340 9999NDV FEW043/// 16/05 Q1020
  • 211220Z AUTO 31015G25KT 270V330 9999NDV NCD 15/05 Q1020

TAF TAF EKRK
Valide du 21 à 15h jusqu'au 22 à 00h UTC


211423Z 2115/2124 29012KT CAVOK
Pas de NOTAMs connus pour ce terrain.



MET'MAP, la Météo Aéronautique d'un coup d'oeil ! - Copyright ORBIFLY Décembre 2007 - Disclaimer

ORBIFLY MET'MAP TEAM :

Programmation & Développement : Alexandra Zaïnal
Conception & Développement : Baudouin d'Aumeries
Co-Programmation & Développement : Marc-Olivier Méhu
Soutien technique & logistique : Manuel Goepfert

Contact : metmap@orbifly.com




SOURCES & CREDITS :

   NOAA